createdAt,value
2018-09-22T00:00:02.202Z,9.94
2018-09-22T00:02:30.508Z,9.98
2018-09-22T00:04:59.007Z,10.09
2018-09-22T00:07:27.460Z,10.04
2018-09-22T00:09:55.773Z,10.03
2018-09-22T00:12:24.261Z,10.13
2018-09-22T00:14:52.592Z,10.05
2018-09-22T00:17:20.904Z,10.12
2018-09-22T00:19:49.413Z,10.15
2018-09-22T00:22:18.041Z,10.12
2018-09-22T00:24:46.612Z,10.01
2018-09-22T00:27:14.991Z,10.15
2018-09-22T00:29:43.287Z,10.18
2018-09-22T00:32:11.725Z,10.16
2018-09-22T00:34:40.088Z,10.18
2018-09-22T00:37:08.402Z,10.20
2018-09-22T00:39:36.714Z,10.12
2018-09-22T00:42:05.235Z,10.02
2018-09-22T00:44:33.553Z,10.06
2018-09-22T00:47:01.857Z,10.10
2018-09-22T00:49:30.385Z,10.14
2018-09-22T00:51:58.721Z,10.19
2018-09-22T00:54:27.032Z,10.17
2018-09-22T00:56:55.369Z,10.12
2018-09-22T00:59:23.712Z,10.16
2018-09-22T01:01:52.017Z,10.18
2018-09-22T01:04:20.395Z,10.19
2018-09-22T01:06:48.732Z,10.24
2018-09-22T01:09:17.064Z,10.17
2018-09-22T01:11:45.568Z,10.17
2018-09-22T01:14:13.880Z,10.30
2018-09-22T01:16:42.180Z,10.18
2018-09-22T01:19:10.548Z,10.28
2018-09-22T01:21:38.904Z,10.22
2018-09-22T01:24:07.292Z,10.26
2018-09-22T01:26:35.839Z,10.29
2018-09-22T01:29:04.153Z,10.20
2018-09-22T01:31:32.465Z,10.32
2018-09-22T01:34:00.976Z,10.32
2018-09-22T01:36:29.276Z,10.39
2018-09-22T01:38:57.576Z,10.46
2018-09-22T01:41:25.896Z,10.53
2018-09-22T01:43:54.209Z,10.43
2018-09-22T01:46:22.517Z,10.41
2018-09-22T01:48:50.841Z,10.49
2018-09-22T01:51:19.145Z,10.55
2018-09-22T01:53:47.572Z,10.59
2018-09-22T01:56:15.905Z,10.56
2018-09-22T01:58:44.220Z,10.48
2018-09-22T02:01:12.519Z,10.64
2018-09-22T02:03:40.864Z,10.74
2018-09-22T02:06:09.168Z,10.74
2018-09-22T02:08:37.695Z,10.68
2018-09-22T02:11:06.395Z,10.73
2018-09-22T02:13:34.701Z,10.86
2018-09-22T02:16:03.017Z,10.91
2018-09-22T02:18:31.388Z,10.97
2018-09-22T02:20:59.701Z,11.06
2018-09-22T02:23:28.005Z,11.02
2018-09-22T02:25:56.429Z,11.08
2018-09-22T02:28:24.764Z,11.10
2018-09-22T02:30:53.093Z,11.09
2018-09-22T02:33:21.544Z,11.06
2018-09-22T02:35:49.881Z,11.09
2018-09-22T02:38:18.332Z,11.01
2018-09-22T02:40:46.668Z,11.09
2018-09-22T02:43:14.972Z,11.03
2018-09-22T02:45:43.290Z,11.12
2018-09-22T02:48:11.812Z,11.00
2018-09-22T02:50:40.136Z,11.05
2018-09-22T02:53:08.460Z,11.04
2018-09-22T02:55:36.961Z,11.12
2018-09-22T02:58:05.288Z,11.07
2018-09-22T03:00:33.600Z,11.11
2018-09-22T03:03:02.112Z,11.08
2018-09-22T03:05:30.412Z,11.21
2018-09-22T03:07:58.758Z,11.21
2018-09-22T03:10:27.100Z,11.15
2018-09-22T03:12:55.425Z,10.98
2018-09-22T03:15:23.792Z,11.03
2018-09-22T03:17:52.371Z,10.98
2018-09-22T03:20:20.697Z,10.83
2018-09-22T03:22:49.009Z,10.89
2018-09-22T03:25:17.493Z,10.91
2018-09-22T03:27:45.857Z,10.88
2018-09-22T03:30:14.253Z,10.88
2018-09-22T03:32:42.542Z,10.69
2018-09-22T03:35:10.869Z,10.76
2018-09-22T03:37:39.281Z,10.68
2018-09-22T03:40:07.694Z,10.66
2018-09-22T03:42:36.018Z,10.68
2018-09-22T03:45:04.400Z,10.56
2018-09-22T03:47:33.796Z,10.45
2018-09-22T03:50:02.120Z,10.51
2018-09-22T03:52:30.433Z,10.54
2018-09-22T03:54:58.797Z,10.40
2018-09-22T03:57:27.121Z,10.45
2018-09-22T03:59:55.432Z,10.46
2018-09-22T04:02:23.792Z,10.59
2018-09-22T04:04:52.091Z,10.51
2018-09-22T04:07:20.417Z,10.42
2018-09-22T04:09:48.764Z,10.40
2018-09-22T04:12:17.092Z,10.36
2018-09-22T04:14:45.400Z,10.36
2018-09-22T04:17:13.758Z,10.32
2018-09-22T04:19:42.072Z,10.38
2018-09-22T04:22:10.382Z,10.31
2018-09-22T04:24:38.729Z,10.33
2018-09-22T04:27:07.092Z,10.34
2018-09-22T04:29:35.420Z,10.42
2018-09-22T04:32:03.777Z,10.45
2018-09-22T04:34:32.101Z,10.43
2018-09-22T04:37:00.425Z,10.40
2018-09-22T04:39:28.945Z,10.29
2018-09-22T04:41:57.293Z,10.30
2018-09-22T04:44:25.624Z,10.29
2018-09-22T04:46:54.056Z,10.26
2018-09-22T04:49:22.380Z,10.37
2018-09-22T04:51:50.692Z,10.34
2018-09-22T04:54:19.045Z,10.35
2018-09-22T04:56:47.404Z,10.32
2018-09-22T04:59:15.716Z,10.46
2018-09-22T05:01:44.056Z,10.60
2018-09-22T05:04:12.371Z,10.63
2018-09-22T05:06:40.691Z,10.73
2018-09-22T05:09:11.189Z,10.78
2018-09-22T05:11:39.533Z,10.70
2018-09-22T05:14:08.012Z,10.71
2018-09-22T05:16:36.568Z,10.80
2018-09-22T05:19:05.148Z,10.92
2018-09-22T05:21:33.468Z,10.70
2018-09-22T05:24:01.830Z,10.80
2018-09-22T05:26:30.140Z,10.79
2018-09-22T05:28:58.497Z,10.82
2018-09-22T05:31:26.833Z,11.01
2018-09-22T05:33:55.148Z,10.87
2018-09-22T05:36:23.466Z,10.75
2018-09-22T05:38:51.809Z,10.64
2018-09-22T05:41:20.120Z,10.75
2018-09-22T05:43:48.441Z,10.62
2018-09-22T05:46:16.792Z,10.67
2018-09-22T05:48:45.098Z,10.61
2018-09-22T05:51:13.416Z,10.59
2018-09-22T05:53:41.936Z,10.53
2018-09-22T05:56:10.261Z,10.71
2018-09-22T05:58:38.625Z,10.71
2018-09-22T06:01:07.097Z,10.86
2018-09-22T06:03:35.486Z,11.16
2018-09-22T06:06:03.757Z,11.26
2018-09-22T06:08:32.210Z,11.13
2018-09-22T06:11:00.548Z,11.29
2018-09-22T06:13:28.889Z,11.11
2018-09-22T06:15:57.265Z,11.23
2018-09-22T06:18:25.836Z,11.23
2018-09-22T06:20:54.172Z,11.25
2018-09-22T06:23:22.635Z,11.27
2018-09-22T06:25:50.916Z,11.46
2018-09-22T06:28:19.293Z,11.44
2018-09-22T06:30:47.633Z,11.42
2018-09-22T06:33:15.948Z,11.68
2018-09-22T06:35:44.264Z,11.92
2018-09-22T06:38:12.601Z,11.94
2018-09-22T06:40:40.926Z,12.01
2018-09-22T06:43:09.441Z,12.16
2018-09-22T06:45:37.823Z,12.47
2018-09-22T06:48:06.132Z,12.29
2018-09-22T06:50:34.451Z,12.57
2018-09-22T06:53:03.226Z,12.29
2018-09-22T06:55:31.587Z,12.18
2018-09-22T06:57:59.913Z,12.30
2018-09-22T07:00:28.249Z,12.22
2018-09-22T07:02:56.576Z,11.92
2018-09-22T07:05:24.892Z,11.94
2018-09-22T07:07:53.426Z,11.84
2018-09-22T07:10:21.796Z,11.92
2018-09-22T07:12:50.109Z,12.06
2018-09-22T07:15:18.492Z,12.29
2018-09-22T07:17:46.849Z,12.37
2018-09-22T07:20:15.417Z,12.58
2018-09-22T07:22:49.177Z,12.65
2018-09-22T07:25:17.552Z,12.72
2018-09-22T07:27:45.853Z,12.53
2018-09-22T07:30:14.424Z,12.85
2018-09-22T07:32:42.800Z,13.46
2018-09-22T07:35:11.129Z,13.88
2018-09-22T07:37:39.512Z,13.88
2018-09-22T07:40:07.860Z,14.01
2018-09-22T07:42:36.240Z,13.71
2018-09-22T07:45:04.589Z,13.66
2018-09-22T07:47:32.917Z,13.80
2018-09-22T07:50:01.242Z,13.41
2018-09-22T07:52:29.605Z,13.60
2018-09-22T07:54:58.017Z,13.40
2018-09-22T07:57:27.349Z,13.59
2018-09-22T07:59:55.706Z,14.11
2018-09-22T08:02:24.045Z,14.07
2018-09-22T08:04:52.413Z,13.90
2018-09-22T08:07:21.033Z,13.92
2018-09-22T08:09:49.541Z,14.19
2018-09-22T08:12:17.876Z,13.92
2018-09-22T08:14:46.241Z,13.63
2018-09-22T08:17:14.573Z,13.44
2018-09-22T08:19:42.913Z,13.10
2018-09-22T08:22:11.337Z,13.21
2018-09-22T08:24:39.702Z,13.21
2018-09-22T08:27:08.020Z,13.64
2018-09-22T08:29:36.424Z,13.89
2018-09-22T08:32:04.769Z,13.90
2018-09-22T08:34:33.092Z,14.65
2018-09-22T08:37:01.627Z,14.42
2018-09-22T08:39:29.876Z,13.79
2018-09-22T08:41:58.200Z,13.31
2018-09-22T08:44:26.551Z,12.83
2018-09-22T08:46:54.996Z,12.38
2018-09-22T08:49:23.368Z,12.43
2018-09-22T08:51:51.865Z,12.21
2018-09-22T08:54:20.180Z,12.40
2018-09-22T08:56:48.728Z,12.63
2018-09-22T08:59:17.183Z,12.82
2018-09-22T09:01:45.521Z,13.09
2018-09-22T09:04:13.836Z,12.93
2018-09-22T09:06:42.224Z,13.34
2018-09-22T09:09:11.069Z,13.43
2018-09-22T09:11:39.509Z,13.56
2018-09-22T09:14:07.934Z,13.63
2018-09-22T09:16:36.260Z,13.76
2018-09-22T09:19:04.628Z,14.61
2018-09-22T09:21:32.984Z,15.14
2018-09-22T09:24:02.362Z,15.17
2018-09-22T09:26:30.689Z,15.13
2018-09-22T09:28:59.049Z,14.81
2018-09-22T09:31:27.409Z,13.93
2018-09-22T09:33:55.746Z,13.58
2018-09-22T09:36:24.140Z,13.40
2018-09-22T09:38:58.500Z,12.81
2018-09-22T09:41:26.984Z,12.84
2018-09-22T09:43:55.363Z,12.83
2018-09-22T09:46:24.335Z,12.76
2018-09-22T09:48:52.704Z,12.71
2018-09-22T09:51:21.115Z,12.83
2018-09-22T09:53:49.554Z,13.43
2018-09-22T09:56:18.324Z,13.45
2018-09-22T09:58:46.669Z,13.63
2018-09-22T10:01:15.041Z,14.09
2018-09-22T10:03:43.544Z,14.11
2018-09-22T10:06:11.942Z,13.81
2018-09-22T10:08:40.315Z,13.73
2018-09-22T10:11:08.681Z,13.36
2018-09-22T10:13:36.993Z,12.95
2018-09-22T10:16:05.315Z,12.78
2018-09-22T10:18:33.667Z,12.76
2018-09-22T10:21:01.971Z,12.86
2018-09-22T10:23:30.736Z,12.78
2018-09-22T10:25:59.136Z,12.89
2018-09-22T10:28:27.587Z,13.03
2018-09-22T10:30:55.853Z,13.36
2018-09-22T10:33:24.200Z,13.10
2018-09-22T10:35:52.511Z,13.38
2018-09-22T10:38:20.832Z,13.95
2018-09-22T10:40:50.014Z,14.14
2018-09-22T10:43:18.370Z,14.27
2018-09-22T10:45:46.713Z,14.09
2018-09-22T10:48:15.145Z,14.27
2018-09-22T10:50:43.501Z,14.30
2018-09-22T10:53:11.856Z,14.27
2018-09-22T10:55:40.181Z,14.41
2018-09-22T10:58:08.524Z,14.53
2018-09-22T11:00:43.224Z,14.43
2018-09-22T11:03:11.638Z,14.43
2018-09-22T11:05:39.935Z,14.66
2018-09-22T11:08:08.250Z,14.70
2018-09-22T11:10:36.584Z,15.12
2018-09-22T11:13:04.920Z,15.00
2018-09-22T11:15:33.256Z,15.00
2018-09-22T11:18:03.620Z,14.86
2018-09-22T11:20:31.946Z,14.80
2018-09-22T11:23:00.280Z,14.82
2018-09-22T11:25:28.610Z,14.99
2018-09-22T11:27:56.989Z,14.79
2018-09-22T11:30:25.304Z,15.21
2018-09-22T11:32:53.624Z,15.26
2018-09-22T11:35:23.068Z,15.09
2018-09-22T11:37:51.400Z,15.11
2018-09-22T11:40:19.791Z,15.48
2018-09-22T11:42:48.250Z,15.23
2018-09-22T11:45:16.621Z,15.52
2018-09-22T11:47:44.968Z,15.50
2018-09-22T11:50:13.308Z,15.53
2018-09-22T11:52:41.624Z,15.82
2018-09-22T11:55:09.996Z,15.72
2018-09-22T11:57:38.321Z,15.97
2018-09-22T12:00:07.188Z,16.23
2018-09-22T12:02:35.558Z,16.05
2018-09-22T12:05:03.968Z,15.96
2018-09-22T12:07:32.312Z,15.47
2018-09-22T12:10:00.669Z,15.57
2018-09-22T12:12:29.017Z,15.53
2018-09-22T12:14:57.373Z,15.67
2018-09-22T12:17:25.698Z,15.66
2018-09-22T12:19:54.037Z,15.58
2018-09-22T12:22:22.356Z,15.50
2018-09-22T12:24:50.710Z,15.69
2018-09-22T12:27:19.060Z,16.03
2018-09-22T12:29:47.420Z,16.14
2018-09-22T12:32:15.762Z,16.13
2018-09-22T12:34:44.273Z,15.77
2018-09-22T12:37:12.603Z,15.54
2018-09-22T12:39:40.969Z,15.51
2018-09-22T12:42:09.310Z,14.83
2018-09-22T12:44:37.638Z,14.12
2018-09-22T12:47:06.029Z,13.67
2018-09-22T12:49:34.448Z,13.58
2018-09-22T12:52:02.780Z,13.91
2018-09-22T12:54:31.187Z,14.19
2018-09-22T12:56:59.544Z,14.17
2018-09-22T12:59:27.890Z,14.25
2018-09-22T13:01:56.212Z,14.40
2018-09-22T13:04:24.536Z,14.50
2018-09-22T13:06:52.844Z,14.44
2018-09-22T13:09:21.157Z,14.64
2018-09-22T13:11:49.411Z,14.89
2018-09-22T13:14:17.697Z,15.17
2018-09-22T13:16:45.953Z,15.41
2018-09-22T13:19:14.288Z,15.46
2018-09-22T13:21:42.621Z,15.71
2018-09-22T13:24:11.053Z,15.05
2018-09-22T13:26:39.403Z,15.06
2018-09-22T13:29:07.740Z,14.74
2018-09-22T13:31:36.084Z,14.57
2018-09-22T13:34:04.616Z,14.30
2018-09-22T13:36:33.008Z,14.13
2018-09-22T13:39:01.327Z,13.94
2018-09-22T13:41:29.673Z,13.48
2018-09-22T13:43:58.008Z,13.75
2018-09-22T13:46:26.344Z,14.04
2018-09-22T13:48:54.665Z,14.06
2018-09-22T13:51:23.006Z,14.39
2018-09-22T13:53:51.334Z,13.96
2018-09-22T13:56:19.721Z,14.22
2018-09-22T13:58:48.084Z,13.86
2018-09-22T14:01:16.577Z,13.79
2018-09-22T14:03:45.000Z,13.74
2018-09-22T14:06:13.301Z,14.18
2018-09-22T14:08:41.644Z,14.04
2018-09-22T14:11:09.985Z,13.69
2018-09-22T14:13:38.304Z,13.68
2018-09-22T14:16:06.655Z,13.63
2018-09-22T14:18:35.171Z,13.72
2018-09-22T14:21:03.498Z,13.73
2018-09-22T14:23:31.828Z,13.48
2018-09-22T14:26:00.172Z,13.32
2018-09-22T14:28:29.536Z,13.44
2018-09-22T14:30:57.965Z,13.46
2018-09-22T14:33:26.301Z,13.64
2018-09-22T14:35:54.646Z,13.87
2018-09-22T14:38:22.985Z,13.95
2018-09-22T14:40:51.349Z,14.42
2018-09-22T14:43:19.725Z,14.28
2018-09-22T14:45:48.052Z,14.26
2018-09-22T14:48:16.408Z,14.59
2018-09-22T14:50:44.750Z,14.88
2018-09-22T14:53:13.064Z,15.11
2018-09-22T14:55:41.412Z,15.90
2018-09-22T14:58:09.749Z,16.89
2018-09-22T15:00:38.108Z,17.05
2018-09-22T15:03:06.829Z,18.02
2018-09-22T15:05:35.185Z,17.40
2018-09-22T15:08:03.535Z,17.19
2018-09-22T15:10:31.877Z,18.47
2018-09-22T15:13:00.205Z,19.71
2018-09-22T15:15:28.556Z,21.48
2018-09-22T15:17:56.913Z,21.91
2018-09-22T15:20:25.265Z,21.83
2018-09-22T15:22:53.621Z,22.41
2018-09-22T15:25:21.968Z,22.67
2018-09-22T15:27:50.275Z,23.83
2018-09-22T15:30:18.596Z,22.25
2018-09-22T15:32:46.945Z,19.21
2018-09-22T15:35:15.292Z,17.45
2018-09-22T15:37:43.622Z,16.14
2018-09-22T15:40:11.964Z,15.59
2018-09-22T15:42:40.365Z,15.21
2018-09-22T15:45:09.296Z,14.83
2018-09-22T15:47:37.652Z,14.90
2018-09-22T15:50:06.031Z,14.66
2018-09-22T15:52:34.520Z,14.92
2018-09-22T15:55:02.858Z,16.63
2018-09-22T15:57:31.185Z,18.47
2018-09-22T15:59:59.608Z,19.31
2018-09-22T16:02:27.944Z,18.78
2018-09-22T16:04:56.286Z,17.58
2018-09-22T16:07:24.685Z,17.04
2018-09-22T16:09:54.524Z,15.86
2018-09-22T16:12:22.830Z,14.69
2018-09-22T16:14:51.148Z,14.66
2018-09-22T16:17:19.453Z,14.61
2018-09-22T16:19:47.764Z,14.60
2018-09-22T16:22:16.090Z,14.29
2018-09-22T16:24:44.432Z,13.86
2018-09-22T16:27:12.758Z,13.86
2018-09-22T16:29:41.097Z,13.75
2018-09-22T16:32:09.594Z,13.66
2018-09-22T16:34:38.096Z,13.52
2018-09-22T16:37:06.574Z,13.65
2018-09-22T16:39:34.917Z,13.44
2018-09-22T16:42:03.232Z,13.41
2018-09-22T16:44:31.573Z,13.46
2018-09-22T16:46:59.906Z,13.53
2018-09-22T16:49:28.281Z,13.34
2018-09-22T16:51:56.592Z,13.20
2018-09-22T16:54:24.945Z,13.22
2018-09-22T16:56:53.272Z,13.22
2018-09-22T16:59:21.676Z,13.12
2018-09-22T17:01:50.021Z,12.99
2018-09-22T17:04:18.391Z,12.95
2018-09-22T17:06:46.732Z,12.93
2018-09-22T17:09:15.097Z,12.98
2018-09-22T17:11:43.438Z,12.83
2018-09-22T17:14:11.796Z,12.73
2018-09-22T17:16:40.142Z,12.68
2018-09-22T17:19:09.593Z,12.67
2018-09-22T17:21:37.935Z,12.56
2018-09-22T17:24:06.314Z,12.50
2018-09-22T17:26:34.653Z,12.44
2018-09-22T17:29:02.999Z,12.41
2018-09-22T17:31:31.343Z,12.37
2018-09-22T17:33:59.732Z,12.21
2018-09-22T17:36:28.083Z,12.19
2018-09-22T17:38:57.417Z,12.17
2018-09-22T17:41:25.807Z,12.11
2018-09-22T17:43:54.308Z,12.10
2018-09-22T17:46:22.723Z,12.00
2018-09-22T17:48:51.069Z,11.92
2018-09-22T17:51:19.426Z,11.96
2018-09-22T17:53:47.821Z,11.85
2018-09-22T17:56:16.123Z,11.90
2018-09-22T17:58:44.484Z,11.91
2018-09-22T18:01:12.847Z,11.90
2018-09-22T18:03:41.193Z,11.81
2018-09-22T18:06:09.639Z,11.85
2018-09-22T18:08:37.884Z,11.84
2018-09-22T18:11:06.232Z,11.74
2018-09-22T18:13:34.568Z,11.65
2018-09-22T18:16:02.880Z,11.68
2018-09-22T18:18:31.298Z,11.69
2018-09-22T18:20:59.640Z,11.60
2018-09-22T18:23:28.026Z,11.53
2018-09-22T18:25:56.376Z,11.58
2018-09-22T18:28:24.716Z,11.59
2018-09-22T18:30:53.068Z,11.53
2018-09-22T18:33:21.456Z,11.50
2018-09-22T18:35:49.785Z,11.45
2018-09-22T18:38:18.113Z,11.39
2018-09-22T18:40:46.720Z,11.35
2018-09-22T18:43:15.043Z,11.60
2018-09-22T18:45:44.405Z,11.48
2018-09-22T18:48:12.731Z,11.32
2018-09-22T18:50:41.252Z,11.25
2018-09-22T18:53:09.568Z,11.13
2018-09-22T18:55:37.896Z,11.08
2018-09-22T18:58:07.335Z,11.04
2018-09-22T19:00:35.697Z,11.28
2018-09-22T19:03:04.053Z,11.06
2018-09-22T19:05:32.405Z,10.78
2018-09-22T19:08:00.749Z,10.90
2018-09-22T19:10:29.097Z,10.86
2018-09-22T19:12:58.019Z,10.84
2018-09-22T19:15:43.665Z,10.87
2018-09-22T19:18:45.932Z,10.80
2018-09-22T19:21:17.868Z,10.75
2018-09-22T19:23:51.861Z,10.81
2018-09-22T19:26:24.686Z,10.84
2018-09-22T19:28:59.842Z,10.88
2018-09-22T19:31:31.937Z,10.81
2018-09-22T19:34:04.521Z,10.84
2018-09-22T19:36:37.953Z,10.80
2018-09-22T19:39:30.409Z,10.81
2018-09-22T19:42:08.499Z,10.86
2018-09-22T19:45:39.858Z,10.78
2018-09-22T19:49:11.948Z,10.76
2018-09-22T19:51:45.080Z,10.77
2018-09-22T19:54:13.457Z,10.81
2018-09-22T19:56:41.781Z,10.59
2018-09-22T19:59:10.401Z,10.63
2018-09-22T20:01:38.761Z,10.58
2018-09-22T20:04:07.129Z,10.76
2018-09-22T20:06:35.460Z,10.77
2018-09-22T20:09:05.041Z,10.76
2018-09-22T20:11:33.428Z,10.85
2018-09-22T20:14:01.842Z,10.82
2018-09-22T20:16:30.181Z,10.94
2018-09-22T20:18:58.549Z,10.98
2018-09-22T20:21:26.876Z,11.00
2018-09-22T20:23:55.273Z,11.03
2018-09-22T20:26:23.556Z,11.09
2018-09-22T20:28:51.873Z,10.92
2018-09-22T20:31:20.234Z,10.97
2018-09-22T20:33:48.594Z,11.00
2018-09-22T20:36:16.989Z,10.84
2018-09-22T20:38:45.362Z,10.94
2018-09-22T20:41:13.704Z,10.88
2018-09-22T20:43:42.069Z,10.94
2018-09-22T20:46:10.420Z,11.04
2018-09-22T20:48:38.745Z,11.06
2018-09-22T20:51:06.737Z,11.09
2018-09-22T20:53:35.408Z,11.06
2018-09-22T20:56:03.741Z,11.09
2018-09-22T20:58:32.080Z,11.01
2018-09-22T21:01:00.481Z,11.00
2018-09-22T21:03:28.812Z,11.04
2018-09-22T21:05:57.308Z,11.04
2018-09-22T21:08:26.741Z,11.05
2018-09-22T21:10:55.100Z,11.16
2018-09-22T21:13:23.413Z,11.15
2018-09-22T21:15:51.747Z,11.15
2018-09-22T21:18:20.082Z,11.16
2018-09-22T21:20:48.433Z,11.05
2018-09-22T21:23:16.790Z,10.98
2018-09-22T21:25:45.127Z,11.04
2018-09-22T21:28:13.464Z,11.04
2018-09-22T21:30:41.805Z,11.12
2018-09-22T21:33:10.121Z,11.16
2018-09-22T21:35:38.475Z,11.07
2018-09-22T21:38:07.016Z,10.96
2018-09-22T21:40:35.360Z,10.99
2018-09-22T21:43:03.678Z,10.96
2018-09-22T21:45:32.045Z,10.88
2018-09-22T21:48:00.397Z,10.79
2018-09-22T21:50:28.737Z,10.61
2018-09-22T21:52:57.065Z,10.76
2018-09-22T21:55:25.405Z,10.62
2018-09-22T21:57:53.729Z,10.74
2018-09-22T22:00:22.128Z,10.67
2018-09-22T22:02:50.450Z,10.74
2018-09-22T22:05:18.785Z,10.80
2018-09-22T22:07:47.100Z,10.86
2018-09-22T22:10:15.440Z,10.99
2018-09-22T22:12:43.844Z,11.10
2018-09-22T22:15:12.184Z,11.14
2018-09-22T22:17:40.524Z,11.14
2018-09-22T22:20:08.863Z,11.27
2018-09-22T22:22:37.200Z,11.23
2018-09-22T22:25:05.732Z,11.18
2018-09-22T22:27:34.196Z,11.11
2018-09-22T22:30:02.536Z,11.14
2018-09-22T22:32:30.848Z,10.96
2018-09-22T22:34:59.213Z,10.95
2018-09-22T22:37:27.524Z,10.83
2018-09-22T22:39:55.856Z,10.75
2018-09-22T22:42:24.194Z,10.73
2018-09-22T22:44:52.833Z,10.75
2018-09-22T22:47:21.166Z,10.92
2018-09-22T22:49:49.506Z,11.08
2018-09-22T22:52:17.853Z,10.94
2018-09-22T22:54:46.184Z,10.97
2018-09-22T22:57:14.538Z,11.00
2018-09-22T22:59:42.893Z,11.12
2018-09-22T23:02:11.233Z,10.93
2018-09-22T23:04:39.571Z,10.91
2018-09-22T23:07:07.921Z,10.66
2018-09-22T23:09:36.284Z,10.45
2018-09-22T23:12:04.988Z,10.58
2018-09-22T23:14:33.373Z,10.63
2018-09-22T23:17:01.735Z,10.44
2018-09-22T23:19:30.069Z,10.26
2018-09-22T23:21:58.388Z,10.17
2018-09-22T23:24:26.732Z,10.16
2018-09-22T23:26:56.109Z,10.33
2018-09-22T23:29:24.446Z,10.28
2018-09-22T23:31:52.797Z,10.15
2018-09-22T23:34:21.394Z,10.18
2018-09-22T23:36:49.853Z,10.16
2018-09-22T23:39:18.241Z,10.17
2018-09-22T23:41:46.566Z,10.12
2018-09-22T23:44:15.218Z,10.03
2018-09-22T23:46:43.549Z,10.05
2018-09-22T23:49:11.889Z,9.93
2018-09-22T23:51:40.240Z,9.98
2018-09-22T23:54:08.605Z,10.01
2018-09-22T23:56:36.933Z,9.97
2018-09-22T23:59:05.273Z,9.90
